sensor_id;sensor_type;location;lat;lon;timestamp;pressure;altitude;pressure_sealevel;temperature;humidity
36254;BME280;22291;52.250;21.228;2023-02-28T00:01:33;101781.70;;;-5.49;73.32
36254;BME280;22291;52.250;21.228;2023-02-28T00:04:00;101772.14;;;-5.54;73.79
36254;BME280;22291;52.250;21.228;2023-02-28T00:06:28;101774.60;;;-5.57;73.94
36254;BME280;22291;52.250;21.228;2023-02-28T00:08:54;101774.29;;;-5.58;73.80
36254;BME280;22291;52.250;21.228;2023-02-28T00:11:21;101777.41;;;-5.63;74.14
36254;BME280;22291;52.250;21.228;2023-02-28T00:13:48;101777.92;;;-5.63;74.40
36254;BME280;22291;52.250;21.228;2023-02-28T00:16:20;101775.75;;;-5.64;74.44
36254;BME280;22291;52.250;21.228;2023-02-28T00:18:49;101777.73;;;-5.66;74.39
36254;BME280;22291;52.250;21.228;2023-02-28T00:21:18;101780.53;;;-5.67;74.55
36254;BME280;22291;52.250;21.228;2023-02-28T00:23:47;101779.07;;;-5.70;74.59
36254;BME280;22291;52.250;21.228;2023-02-28T00:26:14;101776.94;;;-5.70;74.69
36254;BME280;22291;52.250;21.228;2023-02-28T00:28:41;101784.33;;;-5.74;74.80
36254;BME280;22291;52.250;21.228;2023-02-28T00:31:08;101788.28;;;-5.74;74.24
36254;BME280;22291;52.250;21.228;2023-02-28T00:33:36;101785.33;;;-5.75;74.45
36254;BME280;22291;52.250;21.228;2023-02-28T00:36:08;101787.78;;;-5.77;74.51
36254;BME280;22291;52.250;21.228;2023-02-28T00:38:38;101796.20;;;-5.82;74.65
36254;BME280;22291;52.250;21.228;2023-02-28T00:41:06;101792.06;;;-5.85;74.76
36254;BME280;22291;52.250;21.228;2023-02-28T00:43:36;101793.55;;;-5.86;75.01
36254;BME280;22291;52.250;21.228;2023-02-28T00:46:05;101783.33;;;-5.89;74.88
36254;BME280;22291;52.250;21.228;2023-02-28T00:48:33;101786.31;;;-5.92;74.83
36254;BME280;22291;52.250;21.228;2023-02-28T00:51:02;101786.13;;;-5.95;75.18
36254;BME280;22291;52.250;21.228;2023-02-28T00:53:30;101784.81;;;-5.95;75.16
36254;BME280;22291;52.250;21.228;2023-02-28T00:55:59;101789.46;;;-5.97;75.11
36254;BME280;22291;52.250;21.228;2023-02-28T00:58:26;101790.94;;;-5.98;75.56
36254;BME280;22291;52.250;21.228;2023-02-28T01:00:53;101781.88;;;-6.00;75.83
36254;BME280;22291;52.250;21.228;2023-02-28T01:03:21;101774.63;;;-6.02;75.75
36254;BME280;22291;52.250;21.228;2023-02-28T01:05:48;101778.09;;;-6.06;75.63
36254;BME280;22291;52.250;21.228;2023-02-28T01:08:15;101780.41;;;-6.03;75.66
36254;BME280;22291;52.250;21.228;2023-02-28T01:10:42;101778.75;;;-6.08;75.49
36254;BME280;22291;52.250;21.228;2023-02-28T01:13:11;101776.75;;;-6.10;75.70
36254;BME280;22291;52.250;21.228;2023-02-28T01:15:41;101776.25;;;-6.13;75.51
36254;BME280;22291;52.250;21.228;2023-02-28T01:18:10;101776.09;;;-6.16;75.52
36254;BME280;22291;52.250;21.228;2023-02-28T01:20:37;101775.75;;;-6.17;76.01
36254;BME280;22291;52.250;21.228;2023-02-28T01:23:06;101772.13;;;-6.20;76.04
36254;BME280;22291;52.250;21.228;2023-02-28T01:25:34;101773.78;;;-6.19;76.32
36254;BME280;22291;52.250;21.228;2023-02-28T01:28:02;101779.36;;;-6.22;76.24
36254;BME280;22291;52.250;21.228;2023-02-28T01:30:30;101772.78;;;-6.22;76.50
36254;BME280;22291;52.250;21.228;2023-02-28T01:32:58;101779.36;;;-6.22;76.65
36254;BME280;22291;52.250;21.228;2023-02-28T01:35:26;101789.09;;;-6.23;76.52
36254;BME280;22291;52.250;21.228;2023-02-28T01:37:53;101789.25;;;-6.24;76.92
36254;BME280;22291;52.250;21.228;2023-02-28T01:40:20;101784.13;;;-6.26;76.84
36254;BME280;22291;52.250;21.228;2023-02-28T01:42:46;101791.88;;;-6.24;77.28
36254;BME280;22291;52.250;21.228;2023-02-28T01:45:28;101792.03;;;-6.22;77.14
36254;BME280;22291;52.250;21.228;2023-02-28T01:47:58;101795.67;;;-6.23;77.00
36254;BME280;22291;52.250;21.228;2023-02-28T01:50:34;101794.36;;;-6.23;77.09
36254;BME280;22291;52.250;21.228;2023-02-28T01:53:05;101791.53;;;-6.25;76.93
36254;BME280;22291;52.250;21.228;2023-02-28T01:55:35;101799.59;;;-6.27;77.04
36254;BME280;22291;52.250;21.228;2023-02-28T01:58:04;101797.30;;;-6.30;77.07
36254;BME280;22291;52.250;21.228;2023-02-28T02:00:33;101796.62;;;-6.32;77.45
36254;BME280;22291;52.250;21.228;2023-02-28T02:03:06;101793.83;;;-6.34;77.15
36254;BME280;22291;52.250;21.228;2023-02-28T02:05:37;101790.35;;;-6.39;77.24
36254;BME280;22291;52.250;21.228;2023-02-28T02:08:08;101787.06;;;-6.41;77.44
36254;BME280;22291;52.250;21.228;2023-02-28T02:10:42;101792.98;;;-6.43;77.59
36254;BME280;22291;52.250;21.228;2023-02-28T02:16:47;101787.38;;;-6.44;77.94
36254;BME280;22291;52.250;21.228;2023-02-28T02:22:32;101788.03;;;-6.46;77.70
36254;BME280;22291;52.250;21.228;2023-02-28T02:25:42;101789.84;;;-6.47;77.84
36254;BME280;22291;52.250;21.228;2023-02-28T02:31:54;101791.63;;;-6.51;78.15
36254;BME280;22291;52.250;21.228;2023-02-28T02:34:27;101787.34;;;-6.52;78.22
36254;BME280;22291;52.250;21.228;2023-02-28T02:37:03;101790.13;;;-6.54;78.14
36254;BME280;22291;52.250;21.228;2023-02-28T02:45:17;101792.25;;;-6.62;78.38
36254;BME280;22291;52.250;21.228;2023-02-28T02:47:50;101796.36;;;-6.59;78.46
36254;BME280;22291;52.250;21.228;2023-02-28T02:50:27;101797.02;;;-6.61;78.49
36254;BME280;22291;52.250;21.228;2023-02-28T02:52:58;101795.70;;;-6.61;78.52
36254;BME280;22291;52.250;21.228;2023-02-28T02:55:27;101795.20;;;-6.61;78.68
36254;BME280;22291;52.250;21.228;2023-02-28T02:57:58;101802.47;;;-6.59;78.89
36254;BME280;22291;52.250;21.228;2023-02-28T03:00:34;101803.29;;;-6.58;78.96
36254;BME280;22291;52.250;21.228;2023-02-28T03:03:01;101810.38;;;-6.59;78.69
36254;BME280;22291;52.250;21.228;2023-02-28T03:05:30;101808.86;;;-6.61;78.52
36254;BME280;22291;52.250;21.228;2023-02-28T03:08:05;101806.55;;;-6.64;78.46
36254;BME280;22291;52.250;21.228;2023-02-28T03:10:41;101803.56;;;-6.69;78.29
36254;BME280;22291;52.250;21.228;2023-02-28T03:25:27;101805.68;;;-6.77;78.47
36254;BME280;22291;52.250;21.228;2023-02-28T03:33:27;101803.00;;;-6.85;79.05
36254;BME280;22291;52.250;21.228;2023-02-28T03:36:04;101804.81;;;-6.86;79.05
36254;BME280;22291;52.250;21.228;2023-02-28T03:38:46;101807.60;;;-6.87;79.17
36254;BME280;22291;52.250;21.228;2023-02-28T03:41:24;101810.55;;;-6.86;79.40
36254;BME280;22291;52.250;21.228;2023-02-28T03:43:56;101805.78;;;-6.87;79.24
36254;BME280;22291;52.250;21.228;2023-02-28T03:46:27;101813.33;;;-6.88;79.25
36254;BME280;22291;52.250;21.228;2023-02-28T03:48:59;101817.97;;;-6.86;79.44
36254;BME280;22291;52.250;21.228;2023-02-28T03:51:32;101813.18;;;-6.86;79.45
36254;BME280;22291;52.250;21.228;2023-02-28T03:54:05;101813.68;;;-6.87;79.33
36254;BME280;22291;52.250;21.228;2023-02-28T03:56:52;101818.94;;;-6.87;79.42
36254;BME280;22291;52.250;21.228;2023-02-28T03:59:26;101815.81;;;-6.86;79.81
36254;BME280;22291;52.250;21.228;2023-02-28T04:01:54;101816.66;;;-6.86;79.75
36254;BME280;22291;52.250;21.228;2023-02-28T04:04:24;101814.50;;;-6.86;79.76
36254;BME280;22291;52.250;21.228;2023-02-28T04:06:52;101817.63;;;-6.87;79.80
36254;BME280;22291;52.250;21.228;2023-02-28T04:09:20;101821.42;;;-6.85;79.77
36254;BME280;22291;52.250;21.228;2023-02-28T04:11:51;101820.10;;;-6.85;79.78
36254;BME280;22291;52.250;21.228;2023-02-28T04:14:18;101810.23;;;-6.87;79.37
36254;BME280;22291;52.250;21.228;2023-02-28T04:16:45;101815.15;;;-6.88;79.21
36254;BME280;22291;52.250;21.228;2023-02-28T04:19:12;101817.12;;;-6.90;79.08
36254;BME280;22291;52.250;21.228;2023-02-28T04:21:46;101817.42;;;-6.93;78.86
36254;BME280;22291;52.250;21.228;2023-02-28T04:24:13;101812.97;;;-6.97;78.78
36254;BME280;22291;52.250;21.228;2023-02-28T04:26:44;101813.27;;;-7.00;79.16
36254;BME280;22291;52.250;21.228;2023-02-28T04:29:14;101820.52;;;-6.98;79.61
36254;BME280;22291;52.250;21.228;2023-02-28T04:31:45;101815.94;;;-6.96;79.95
36254;BME280;22291;52.250;21.228;2023-02-28T04:34:12;101821.67;;;-6.97;79.89
36254;BME280;22291;52.250;21.228;2023-02-28T04:36:39;101821.52;;;-6.95;79.96
36254;BME280;22291;52.250;21.228;2023-02-28T04:39:05;101820.70;;;-6.96;79.82
36254;BME280;22291;52.250;21.228;2023-02-28T04:41:32;101820.20;;;-6.95;79.95
36254;BME280;22291;52.250;21.228;2023-02-28T04:43:58;101815.79;;;-6.95;79.53
36254;BME280;22291;52.250;21.228;2023-02-28T04:46:24;101820.20;;;-6.95;79.65
36254;BME280;22291;52.250;21.228;2023-02-28T04:48:50;101826.47;;;-6.96;79.47
36254;BME280;22291;52.250;21.228;2023-02-28T04:51:18;101827.28;;;-6.96;79.64
36254;BME280;22291;52.250;21.228;2023-02-28T04:53:46;101821.83;;;-6.98;79.40
36254;BME280;22291;52.250;21.228;2023-02-28T04:56:15;101822.02;;;-7.00;79.54
36254;BME280;22291;52.250;21.228;2023-02-28T04:58:44;101824.30;;;-7.01;79.58
36254;BME280;22291;52.250;21.228;2023-02-28T05:01:25;101830.88;;;-7.01;79.57
36254;BME280;22291;52.250;21.228;2023-02-28T05:03:56;101823.78;;;-7.04;79.10
36254;BME280;22291;52.250;21.228;2023-02-28T05:06:26;101827.22;;;-7.08;79.04
36254;BME280;22291;52.250;21.228;2023-02-28T05:08:54;101829.15;;;-7.10;79.43
36254;BME280;22291;52.250;21.228;2023-02-28T05:11:23;101831.97;;;-7.11;79.59
36254;BME280;22291;52.250;21.228;2023-02-28T05:13:52;101837.54;;;-7.10;79.85
36254;BME280;22291;52.250;21.228;2023-02-28T05:16:20;101840.67;;;-7.11;79.80
36254;BME280;22291;52.250;21.228;2023-02-28T05:18:47;101846.75;;;-7.10;79.90
36254;BME280;22291;52.250;21.228;2023-02-28T05:24:00;101854.84;;;-7.08;80.05
36254;BME280;22291;52.250;21.228;2023-02-28T05:26:43;101858.45;;;-7.05;79.98
36254;BME280;22291;52.250;21.228;2023-02-28T05:29:08;101854.50;;;-7.05;80.08
36254;BME280;22291;52.250;21.228;2023-02-28T05:31:36;101862.74;;;-7.04;80.03
36254;BME280;22291;52.250;21.228;2023-02-28T05:34:03;101868.81;;;-7.03;80.27
36254;BME280;22291;52.250;21.228;2023-02-28T05:36:30;101869.98;;;-7.02;80.35
36254;BME280;22291;52.250;21.228;2023-02-28T05:38:57;101872.14;;;-7.01;79.98
36254;BME280;22291;52.250;21.228;2023-02-28T05:41:23;101871.13;;;-7.04;79.89
36254;BME280;22291;52.250;21.228;2023-02-28T05:43:49;101880.36;;;-7.00;80.47
36254;BME280;22291;52.250;21.228;2023-02-28T05:46:16;101870.03;;;-6.98;80.52
36254;BME280;22291;52.250;21.228;2023-02-28T05:48:46;101871.20;;;-6.92;80.71
36254;BME280;22291;52.250;21.228;2023-02-28T05:51:14;101880.78;;;-6.87;80.88
36254;BME280;22291;52.250;21.228;2023-02-28T05:53:40;101879.82;;;-6.82;80.85
36254;BME280;22291;52.250;21.228;2023-02-28T05:56:07;101876.88;;;-6.79;80.84
36254;BME280;22291;52.250;21.228;2023-02-28T05:58:33;101885.30;;;-6.71;81.09
36254;BME280;22291;52.250;21.228;2023-02-28T06:01:19;101886.98;;;-6.66;81.09
36254;BME280;22291;52.250;21.228;2023-02-28T06:03:47;101895.42;;;-6.58;81.15
36254;BME280;22291;52.250;21.228;2023-02-28T06:06:13;101897.61;;;-6.49;81.32
36254;BME280;22291;52.250;21.228;2023-02-28T06:08:39;101893.36;;;-6.42;81.37
36254;BME280;22291;52.250;21.228;2023-02-28T06:11:06;101899.33;;;-6.32;81.77
36254;BME280;22291;52.250;21.228;2023-02-28T06:13:33;101902.19;;;-6.21;81.99
36254;BME280;22291;52.250;21.228;2023-02-28T06:16:04;101898.44;;;-6.10;82.09
36254;BME280;22291;52.250;21.228;2023-02-28T06:18:31;101894.67;;;-5.99;82.14
36254;BME280;22291;52.250;21.228;2023-02-28T06:20:58;101896.02;;;-5.87;82.37
36254;BME280;22291;52.250;21.228;2023-02-28T06:23:24;101901.00;;;-5.72;82.61
36254;BME280;22291;52.250;21.228;2023-02-28T06:25:50;101900.35;;;-5.57;82.74
36254;BME280;22291;52.250;21.228;2023-02-28T06:28:19;101903.17;;;-5.42;82.69
36254;BME280;22291;52.250;21.228;2023-02-28T06:30:45;101890.97;;;-5.31;82.63
36254;BME280;22291;52.250;21.228;2023-02-28T06:33:11;101902.03;;;-5.15;82.63
36254;BME280;22291;52.250;21.228;2023-02-28T06:35:37;101894.45;;;-5.02;82.70
36254;BME280;22291;52.250;21.228;2023-02-28T06:38:04;101894.09;;;-4.86;82.78
36254;BME280;22291;52.250;21.228;2023-02-28T06:40:30;101888.77;;;-4.70;82.96
36254;BME280;22291;52.250;21.228;2023-02-28T06:42:58;101888.41;;;-4.51;83.01
36254;BME280;22291;52.250;21.228;2023-02-28T06:45:24;101884.81;;;-4.22;84.19
36254;BME280;22291;52.250;21.228;2023-02-28T06:47:52;101881.52;;;-3.89;84.39
36254;BME280;22291;52.250;21.228;2023-02-28T06:50:19;101867.05;;;-3.51;85.15
36254;BME280;22291;52.250;21.228;2023-02-28T06:52:47;101875.67;;;-3.11;85.60
36254;BME280;22291;52.250;21.228;2023-02-28T06:55:13;101868.31;;;-2.71;85.57
36254;BME280;22291;52.250;21.228;2023-02-28T06:57:40;101869.64;;;-2.26;85.83
36254;BME280;22291;52.250;21.228;2023-02-28T07:00:08;101863.28;;;-1.84;85.45
36254;BME280;22291;52.250;21.228;2023-02-28T07:02:36;101859.70;;;-1.44;85.08
36254;BME280;22291;52.250;21.228;2023-02-28T07:05:04;101858.94;;;-0.99;84.47
36254;BME280;22291;52.250;21.228;2023-02-28T07:07:31;101859.95;;;-0.54;83.83
36254;BME280;22291;52.250;21.228;2023-02-28T07:09:59;101869.84;;;-0.11;83.09
36254;BME280;22291;52.250;21.228;2023-02-28T07:12:25;101860.55;;;0.33;82.89
36254;BME280;22291;52.250;21.228;2023-02-28T07:14:52;101853.31;;;0.78;82.41
36254;BME280;22291;52.250;21.228;2023-02-28T07:17:20;101857.36;;;1.27;81.30
36254;BME280;22291;52.250;21.228;2023-02-28T07:19:46;101859.70;;;1.76;80.69
36254;BME280;22291;52.250;21.228;2023-02-28T07:22:13;101855.23;;;2.24;80.02
36254;BME280;22291;52.250;21.228;2023-02-28T07:24:39;101862.48;;;2.74;78.96
36254;BME280;22291;52.250;21.228;2023-02-28T07:27:06;101856.64;;;3.18;77.48
36254;BME280;22291;52.250;21.228;2023-02-28T07:29:32;101854.45;;;3.61;76.35
36254;BME280;22291;52.250;21.228;2023-02-28T07:31:58;101859.38;;;4.04;74.91
36254;BME280;22291;52.250;21.228;2023-02-28T07:34:25;101852.09;;;4.44;73.58
36254;BME280;22291;52.250;21.228;2023-02-28T07:36:55;101852.51;;;4.83;72.62
36254;BME280;22291;52.250;21.228;2023-02-28T07:39:22;101849.75;;;5.28;71.61
36254;BME280;22291;52.250;21.228;2023-02-28T07:41:49;101851.78;;;5.73;70.63
36254;BME280;22291;52.250;21.228;2023-02-28T07:44:16;101853.80;;;6.06;68.68
36254;BME280;22291;52.250;21.228;2023-02-28T07:46:43;101849.55;;;6.39;67.72
36254;BME280;22291;52.250;21.228;2023-02-28T07:49:09;101858.05;;;6.84;66.51
36254;BME280;22291;52.250;21.228;2023-02-28T07:51:35;101858.51;;;7.32;64.80
36254;BME280;22291;52.250;21.228;2023-02-28T07:54:02;101855.57;;;8.02;62.82
36254;BME280;22291;52.250;21.228;2023-02-28T07:56:29;101867.42;;;8.53;61.43
36254;BME280;22291;52.250;21.228;2023-02-28T07:58:56;101863.80;;;8.75;59.60
36254;BME280;22291;52.250;21.228;2023-02-28T08:01:22;101865.84;;;8.95;58.85
36254;BME280;22291;52.250;21.228;2023-02-28T08:03:49;101865.77;;;9.25;57.94
36254;BME280;22291;52.250;21.228;2023-02-28T08:06:21;101866.79;;;9.71;57.28
36254;BME280;22291;52.250;21.228;2023-02-28T08:08:49;101860.23;;;10.36;55.78
36254;BME280;22291;52.250;21.228;2023-02-28T08:11:18;101864.53;;;10.96;54.69
36254;BME280;22291;52.250;21.228;2023-02-28T08:13:45;101872.58;;;11.39;52.99
36254;BME280;22291;52.250;21.228;2023-02-28T08:16:13;101866.23;;;11.67;53.04
36254;BME280;22291;52.250;21.228;2023-02-28T08:18:44;101864.78;;;11.90;52.31
36254;BME280;22291;52.250;21.228;2023-02-28T08:21:11;101867.73;;;11.96;50.65
36254;BME280;22291;52.250;21.228;2023-02-28T08:23:37;101871.83;;;11.86;49.12
36254;BME280;22291;52.250;21.228;2023-02-28T08:26:05;101865.08;;;11.81;49.33
36254;BME280;22291;52.250;21.228;2023-02-28T08:28:32;101865.58;;;11.93;48.72
36254;BME280;22291;52.250;21.228;2023-02-28T08:31:00;101867.02;;;11.75;47.27
36254;BME280;22291;52.250;21.228;2023-02-28T08:33:29;101864.00;;;11.80;47.23
36254;BME280;22291;52.250;21.228;2023-02-28T08:35:58;101866.16;;;11.83;46.96
36254;BME280;22291;52.250;21.228;2023-02-28T08:38:25;101863.67;;;11.96;46.60
36254;BME280;22291;52.250;21.228;2023-02-28T08:41:00;101870.39;;;12.09;46.74
36254;BME280;22291;52.250;21.228;2023-02-28T08:43:28;101867.98;;;12.45;47.03
36254;BME280;22291;52.250;21.228;2023-02-28T08:45:56;101868.48;;;12.84;46.59
36254;BME280;22291;52.250;21.228;2023-02-28T08:48:28;101869.74;;;12.94;44.81
36254;BME280;22291;52.250;21.228;2023-02-28T08:51:01;101863.42;;;13.01;44.56
36254;BME280;22291;52.250;21.228;2023-02-28T08:53:35;101865.75;;;13.13;44.53
36254;BME280;22291;52.250;21.228;2023-02-28T08:56:06;101867.41;;;13.38;43.65
36254;BME280;22291;52.250;21.228;2023-02-28T08:58:39;101876.20;;;13.76;43.04
36254;BME280;22291;52.250;21.228;2023-02-28T09:01:19;101873.86;;;14.07;42.59
36254;BME280;22291;52.250;21.228;2023-02-28T09:03:49;101874.88;;;14.11;41.90
36254;BME280;22291;52.250;21.228;2023-02-28T09:06:18;101868.52;;;13.99;41.03
36254;BME280;22291;52.250;21.228;2023-02-28T09:08:48;101871.38;;;13.89;40.79
36254;BME280;22291;52.250;21.228;2023-02-28T09:11:17;101869.06;;;13.80;40.22
36254;BME280;22291;52.250;21.228;2023-02-28T09:13:45;101864.36;;;13.86;40.30
36254;BME280;22291;52.250;21.228;2023-02-28T09:16:15;101876.00;;;14.10;40.34
36254;BME280;22291;52.250;21.228;2023-02-28T09:18:44;101874.30;;;14.14;39.15
36254;BME280;22291;52.250;21.228;2023-02-28T09:21:14;101871.41;;;14.27;39.44
36254;BME280;22291;52.250;21.228;2023-02-28T09:23:45;101869.96;;;14.49;39.27
36254;BME280;22291;52.250;21.228;2023-02-28T09:26:20;101870.13;;;14.90;39.14
36254;BME280;22291;52.250;21.228;2023-02-28T09:28:46;101874.74;;;15.20;38.90
36254;BME280;22291;52.250;21.228;2023-02-28T09:31:15;101871.09;;;15.41;38.86
36254;BME280;22291;52.250;21.228;2023-02-28T09:33:48;101872.44;;;15.55;38.53
36254;BME280;22291;52.250;21.228;2023-02-28T09:36:18;101868.84;;;15.57;38.05
36254;BME280;22291;52.250;21.228;2023-02-28T09:38:45;101865.84;;;15.31;36.79
36254;BME280;22291;52.250;21.228;2023-02-28T09:41:19;101862.18;;;15.22;36.86
36254;BME280;22291;52.250;21.228;2023-02-28T09:43:47;101859.72;;;15.23;37.17
36254;BME280;22291;52.250;21.228;2023-02-28T09:46:42;101865.96;;;15.09;36.73
36254;BME280;22291;52.250;21.228;2023-02-28T09:49:00;101864.37;;;15.22;36.96
36254;BME280;22291;52.250;21.228;2023-02-28T09:51:51;101854.53;;;15.38;36.30
36254;BME280;22291;52.250;21.228;2023-02-28T09:54:21;101862.08;;;15.41;36.09
36254;BME280;22291;52.250;21.228;2023-02-28T09:56:53;101862.31;;;15.69;35.93
36254;BME280;22291;52.250;21.228;2023-02-28T10:05:20;101866.36;;;16.68;35.46
36254;BME280;22291;52.250;21.228;2023-02-28T12:27:00;101757.81;;;16.39;30.11
36254;BME280;22291;52.250;21.228;2023-02-28T12:29:32;101749.00;;;16.42;30.16
36254;BME280;22291;52.250;21.228;2023-02-28T12:32:13;101755.76;;;16.02;29.19
36254;BME280;22291;52.250;21.228;2023-02-28T12:34:49;101740.17;;;15.30;29.29
36254;BME280;22291;52.250;21.228;2023-02-28T12:40:18;101741.23;;;15.57;30.74
36254;BME280;22291;52.250;21.228;2023-02-28T12:42:51;101733.62;;;15.67;30.43
36254;BME280;22291;52.250;21.228;2023-02-28T12:45:36;101741.22;;;15.93;30.17
36254;BME280;22291;52.250;21.228;2023-02-28T12:48:07;101733.17;;;15.99;29.97
36254;BME280;22291;52.250;21.228;2023-02-28T12:50:37;101728.03;;;16.09;30.50
36254;BME280;22291;52.250;21.228;2023-02-28T12:58:43;101728.44;;;16.14;29.79
36254;BME280;22291;52.250;21.228;2023-02-28T13:01:28;101719.22;;;16.01;29.92
36254;BME280;22291;52.250;21.228;2023-02-28T13:07:38;101726.23;;;16.04;29.52
36254;BME280;22291;52.250;21.228;2023-02-28T13:10:06;101717.09;;;15.86;29.37
36254;BME280;22291;52.250;21.228;2023-02-28T13:12:34;101712.17;;;15.63;29.66
36254;BME280;22291;52.250;21.228;2023-02-28T13:17:58;101708.18;;;15.47;29.64
36254;BME280;22291;52.250;21.228;2023-02-28T13:20:34;101699.58;;;15.54;29.96
36254;BME280;22291;52.250;21.228;2023-02-28T13:23:03;101696.99;;;15.60;29.79
36254;BME280;22291;52.250;21.228;2023-02-28T13:25:49;101693.84;;;15.66;29.89
36254;BME280;22291;52.250;21.228;2023-02-28T13:28:12;101693.77;;;15.69;29.94
36254;BME280;22291;52.250;21.228;2023-02-28T13:36:23;101688.45;;;15.27;29.67
36254;BME280;22291;52.250;21.228;2023-02-28T13:38:53;101687.47;;;15.09;29.47
36254;BME280;22291;52.250;21.228;2023-02-28T13:44:06;101675.61;;;14.91;29.73
36254;BME280;22291;52.250;21.228;2023-02-28T13:49:26;101666.69;;;14.74;29.76
36254;BME280;22291;52.250;21.228;2023-02-28T13:57:49;101657.20;;;14.28;30.07
36254;BME280;22291;52.250;21.228;2023-02-28T14:03:53;101657.80;;;13.78;29.76
36254;BME280;22291;52.250;21.228;2023-02-28T14:11:43;101657.91;;;12.94;30.55
36254;BME280;22291;52.250;21.228;2023-02-28T14:15:23;101643.92;;;12.82;31.30
36254;BME280;22291;52.250;21.228;2023-02-28T14:17:07;101649.34;;;12.84;31.20
36254;BME280;22291;52.250;21.228;2023-02-28T14:19:39;101640.09;;;12.64;31.40
36254;BME280;22291;52.250;21.228;2023-02-28T14:24:59;101630.31;;;12.63;32.15
36254;BME280;22291;52.250;21.228;2023-02-28T14:27:57;101631.78;;;12.55;31.28
36254;BME280;22291;52.250;21.228;2023-02-28T14:30:40;101621.62;;;12.39;31.33
36254;BME280;22291;52.250;21.228;2023-02-28T14:36:06;101626.31;;;11.75;31.45
36254;BME280;22291;52.250;21.228;2023-02-28T14:39:10;101627.05;;;11.51;31.18
36254;BME280;22291;52.250;21.228;2023-02-28T14:41:37;101630.70;;;11.31;31.69
36254;BME280;22291;52.250;21.228;2023-02-28T14:44:23;101625.69;;;11.12;31.66
36254;BME280;22291;52.250;21.228;2023-02-28T14:46:53;101620.43;;;10.78;31.86
36254;BME280;22291;52.250;21.228;2023-02-28T14:49:34;101618.32;;;10.65;32.16
36254;BME280;22291;52.250;21.228;2023-02-28T14:52:21;101621.09;;;10.52;32.47
36254;BME280;22291;52.250;21.228;2023-02-28T14:54:59;101617.88;;;10.19;32.45
36254;BME280;22291;52.250;21.228;2023-02-28T14:57:31;101611.16;;;9.99;32.82
36254;BME280;22291;52.250;21.228;2023-02-28T15:00:15;101619.82;;;9.85;33.19
36254;BME280;22291;52.250;21.228;2023-02-28T15:02:44;101617.66;;;9.72;33.21
36254;BME280;22291;52.250;21.228;2023-02-28T15:08:14;101617.94;;;9.52;33.28
36254;BME280;22291;52.250;21.228;2023-02-28T15:10:37;101613.33;;;9.38;33.38
36254;BME280;22291;52.250;21.228;2023-02-28T15:13:13;101615.45;;;9.18;33.84
36254;BME280;22291;52.250;21.228;2023-02-28T15:15:45;101613.81;;;9.01;33.92
36254;BME280;22291;52.250;21.228;2023-02-28T15:21:06;101617.44;;;8.56;33.99
36254;BME280;22291;52.250;21.228;2023-02-28T15:23:49;101620.20;;;8.27;34.07
36254;BME280;22291;52.250;21.228;2023-02-28T15:26:20;101625.20;;;8.10;34.47
36254;BME280;22291;52.250;21.228;2023-02-28T15:28:52;101619.72;;;7.92;34.80
36254;BME280;22291;52.250;21.228;2023-02-28T15:31:32;101615.23;;;7.71;34.62
36254;BME280;22291;52.250;21.228;2023-02-28T15:34:06;101616.06;;;7.44;34.50
36254;BME280;22291;52.250;21.228;2023-02-28T15:36:48;101613.42;;;7.19;34.96
36254;BME280;22291;52.250;21.228;2023-02-28T15:39:23;101615.23;;;6.86;35.04
36254;BME280;22291;52.250;21.228;2023-02-28T15:42:19;101614.88;;;6.58;35.06
36254;BME280;22291;52.250;21.228;2023-02-28T15:44:51;101614.18;;;6.26;35.49
36254;BME280;22291;52.250;21.228;2023-02-28T15:47:22;101612.09;;;5.94;35.67
36254;BME280;22291;52.250;21.228;2023-02-28T15:52:37;101610.59;;;5.36;36.55
36254;BME280;22291;52.250;21.228;2023-02-28T15:55:27;101618.95;;;5.08;36.85
36254;BME280;22291;52.250;21.228;2023-02-28T15:57:56;101617.88;;;4.80;36.67
36254;BME280;22291;52.250;21.228;2023-02-28T16:00:29;101620.78;;;4.53;37.30
36254;BME280;22291;52.250;21.228;2023-02-28T16:03:00;101619.95;;;4.26;38.59
36254;BME280;22291;52.250;21.228;2023-02-28T16:05:29;101618.04;;;4.00;38.32
36254;BME280;22291;52.250;21.228;2023-02-28T16:08:13;101618.95;;;3.82;38.29
36254;BME280;22291;52.250;21.228;2023-02-28T16:10:40;101615.23;;;3.62;39.27
36254;BME280;22291;52.250;21.228;2023-02-28T16:13:12;101619.67;;;3.47;38.66
36254;BME280;22291;52.250;21.228;2023-02-28T16:15:43;101627.79;;;3.29;38.90
36254;BME280;22291;52.250;21.228;2023-02-28T16:18:12;101623.28;;;3.11;39.75
36254;BME280;22291;52.250;21.228;2023-02-28T16:20:44;101630.44;;;2.89;40.00
36254;BME280;22291;52.250;21.228;2023-02-28T16:23:12;101628.25;;;2.68;41.42
36254;BME280;22291;52.250;21.228;2023-02-28T16:25:41;101628.46;;;2.48;40.59
36254;BME280;22291;52.250;21.228;2023-02-28T16:28:31;101625.71;;;2.27;40.79
36254;BME280;22291;52.250;21.228;2023-02-28T16:31:00;101628.34;;;2.08;40.72
36254;BME280;22291;52.250;21.228;2023-02-28T16:33:34;101632.52;;;1.88;40.93
36254;BME280;22291;52.250;21.228;2023-02-28T16:36:05;101625.25;;;1.70;40.85
36254;BME280;22291;52.250;21.228;2023-02-28T16:38:32;101632.16;;;1.53;40.93
36254;BME280;22291;52.250;21.228;2023-02-28T16:41:01;101624.38;;;1.35;41.68
36254;BME280;22291;52.250;21.228;2023-02-28T16:43:29;101621.08;;;1.17;42.89
36254;BME280;22291;52.250;21.228;2023-02-28T16:45:59;101624.47;;;0.99;42.30
36254;BME280;22291;52.250;21.228;2023-02-28T16:48:30;101630.58;;;0.84;44.18
36254;BME280;22291;52.250;21.228;2023-02-28T16:50:56;101642.50;;;0.68;45.10
36254;BME280;22291;52.250;21.228;2023-02-28T16:53:23;101643.78;;;0.52;45.36
36254;BME280;22291;52.250;21.228;2023-02-28T16:55:52;101648.84;;;0.38;45.69
36254;BME280;22291;52.250;21.228;2023-02-28T16:58:23;101641.89;;;0.23;46.69